sensor_id;sensor_type;location;lat;lon;timestamp;P1;durP1;ratioP1;P2;durP2;ratioP2
61015;SDS011;46902;52.920;6.536;2023-04-09T00:00:17;66.15;;;45.55;;
61015;SDS011;46902;52.920;6.536;2023-04-09T00:02:43;68.57;;;47.35;;
61015;SDS011;46902;52.920;6.536;2023-04-09T00:05:08;68.05;;;47.20;;
61015;SDS011;46902;52.920;6.536;2023-04-09T00:07:34;70.63;;;46.90;;
61015;SDS011;46902;52.920;6.536;2023-04-09T00:10:00;69.38;;;47.28;;
61015;SDS011;46902;52.920;6.536;2023-04-09T00:12:25;65.32;;;47.38;;
61015;SDS011;46902;52.920;6.536;2023-04-09T00:14:51;60.83;;;44.17;;
61015;SDS011;46902;52.920;6.536;2023-04-09T00:17:16;62.15;;;44.53;;
61015;SDS011;46902;52.920;6.536;2023-04-09T00:19:42;64.60;;;44.15;;
61015;SDS011;46902;52.920;6.536;2023-04-09T00:22:08;64.85;;;43.92;;
61015;SDS011;46902;52.920;6.536;2023-04-09T00:24:33;63.17;;;42.30;;
61015;SDS011;46902;52.920;6.536;2023-04-09T00:26:59;61.10;;;41.80;;
61015;SDS011;46902;52.920;6.536;2023-04-09T00:29:25;62.60;;;42.35;;
61015;SDS011;46902;52.920;6.536;2023-04-09T00:31:51;59.40;;;41.65;;
61015;SDS011;46902;52.920;6.536;2023-04-09T00:34:16;57.05;;;40.80;;
61015;SDS011;46902;52.920;6.536;2023-04-09T00:36:42;55.13;;;39.53;;
61015;SDS011;46902;52.920;6.536;2023-04-09T00:39:08;57.47;;;40.50;;
61015;SDS011;46902;52.920;6.536;2023-04-09T00:41:33;59.10;;;40.03;;
61015;SDS011;46902;52.920;6.536;2023-04-09T00:43:59;62.15;;;38.75;;
61015;SDS011;46902;52.920;6.536;2023-04-09T00:46:25;57.60;;;39.83;;
61015;SDS011;46902;52.920;6.536;2023-04-09T00:48:51;53.35;;;38.05;;
61015;SDS011;46902;52.920;6.536;2023-04-09T00:51:16;50.92;;;36.85;;
61015;SDS011;46902;52.920;6.536;2023-04-09T00:53:42;56.55;;;37.97;;
61015;SDS011;46902;52.920;6.536;2023-04-09T00:56:09;48.88;;;35.67;;
61015;SDS011;46902;52.920;6.536;2023-04-09T00:58:36;53.70;;;36.72;;
61015;SDS011;46902;52.920;6.536;2023-04-09T01:01:01;49.88;;;35.63;;
61015;SDS011;46902;52.920;6.536;2023-04-09T01:03:27;52.67;;;34.92;;
61015;SDS011;46902;52.920;6.536;2023-04-09T01:05:58;53.13;;;34.78;;
61015;SDS011;46902;52.920;6.536;2023-04-09T01:08:50;51.38;;;34.92;;
61015;SDS011;46902;52.920;6.536;2023-04-09T01:17:18;49.75;;;33.30;;
61015;SDS011;46902;52.920;6.536;2023-04-09T01:20:07;48.28;;;32.22;;
61015;SDS011;46902;52.920;6.536;2023-04-09T01:22:56;45.50;;;32.03;;
61015;SDS011;46902;52.920;6.536;2023-04-09T01:30:51;42.90;;;29.63;;
61015;SDS011;46902;52.920;6.536;2023-04-09T01:33:21;44.38;;;31.80;;
61015;SDS011;46902;52.920;6.536;2023-04-09T01:35:48;44.28;;;31.38;;
61015;SDS011;46902;52.920;6.536;2023-04-09T01:38:17;47.80;;;30.20;;
61015;SDS011;46902;52.920;6.536;2023-04-09T01:40:44;44.10;;;31.30;;
61015;SDS011;46902;52.920;6.536;2023-04-09T01:43:10;40.92;;;29.05;;
61015;SDS011;46902;52.920;6.536;2023-04-09T01:45:37;42.22;;;28.92;;
61015;SDS011;46902;52.920;6.536;2023-04-09T01:48:04;45.95;;;31.55;;
61015;SDS011;46902;52.920;6.536;2023-04-09T01:50:31;48.10;;;32.20;;
61015;SDS011;46902;52.920;6.536;2023-04-09T01:52:57;47.78;;;31.95;;
61015;SDS011;46902;52.920;6.536;2023-04-09T01:55:23;50.58;;;32.42;;
61015;SDS011;46902;52.920;6.536;2023-04-09T01:57:49;40.47;;;30.33;;
61015;SDS011;46902;52.920;6.536;2023-04-09T02:00:14;44.47;;;31.00;;
61015;SDS011;46902;52.920;6.536;2023-04-09T02:05:25;42.67;;;30.80;;
61015;SDS011;46902;52.920;6.536;2023-04-09T02:07:55;45.28;;;30.10;;
61015;SDS011;46902;52.920;6.536;2023-04-09T02:10:25;49.30;;;31.23;;
61015;SDS011;46902;52.920;6.536;2023-04-09T02:12:53;43.20;;;30.98;;
61015;SDS011;46902;52.920;6.536;2023-04-09T02:15:20;43.67;;;30.63;;
61015;SDS011;46902;52.920;6.536;2023-04-09T02:17:46;40.17;;;29.02;;
61015;SDS011;46902;52.920;6.536;2023-04-09T02:20:18;42.30;;;29.58;;
61015;SDS011;46902;52.920;6.536;2023-04-09T02:22:44;47.70;;;30.60;;
61015;SDS011;46902;52.920;6.536;2023-04-09T02:25:10;47.60;;;32.47;;
61015;SDS011;46902;52.920;6.536;2023-04-09T02:27:36;49.30;;;32.95;;
61015;SDS011;46902;52.920;6.536;2023-04-09T02:30:02;50.30;;;33.22;;
61015;SDS011;46902;52.920;6.536;2023-04-09T02:32:28;43.10;;;31.48;;
61015;SDS011;46902;52.920;6.536;2023-04-09T02:34:53;48.60;;;31.05;;
61015;SDS011;46902;52.920;6.536;2023-04-09T02:37:19;49.70;;;31.30;;
61015;SDS011;46902;52.920;6.536;2023-04-09T02:39:44;47.22;;;32.20;;
61015;SDS011;46902;52.920;6.536;2023-04-09T02:42:10;47.03;;;32.05;;
61015;SDS011;46902;52.920;6.536;2023-04-09T02:44:36;44.65;;;31.77;;
61015;SDS011;46902;52.920;6.536;2023-04-09T02:47:01;47.38;;;31.88;;
61015;SDS011;46902;52.920;6.536;2023-04-09T02:49:27;47.42;;;30.33;;
61015;SDS011;46902;52.920;6.536;2023-04-09T02:51:52;45.33;;;32.20;;
61015;SDS011;46902;52.920;6.536;2023-04-09T02:54:18;49.50;;;33.10;;
61015;SDS011;46902;52.920;6.536;2023-04-09T02:56:44;52.20;;;32.70;;
61015;SDS011;46902;52.920;6.536;2023-04-09T02:59:09;47.58;;;33.65;;
61015;SDS011;46902;52.920;6.536;2023-04-09T03:01:35;48.33;;;32.47;;
61015;SDS011;46902;52.920;6.536;2023-04-09T03:04:01;44.08;;;31.15;;
61015;SDS011;46902;52.920;6.536;2023-04-09T03:06:26;44.38;;;32.95;;
61015;SDS011;46902;52.920;6.536;2023-04-09T03:08:52;46.50;;;32.78;;
61015;SDS011;46902;52.920;6.536;2023-04-09T03:11:18;46.97;;;32.92;;
61015;SDS011;46902;52.920;6.536;2023-04-09T03:13:43;47.78;;;32.75;;
61015;SDS011;46902;52.920;6.536;2023-04-09T03:16:09;51.10;;;33.00;;
61015;SDS011;46902;52.920;6.536;2023-04-09T03:18:35;46.42;;;32.55;;
61015;SDS011;46902;52.920;6.536;2023-04-09T03:21:07;48.50;;;33.92;;
61015;SDS011;46902;52.920;6.536;2023-04-09T03:23:33;45.25;;;32.75;;
61015;SDS011;46902;52.920;6.536;2023-04-09T03:26:05;43.58;;;32.60;;
61015;SDS011;46902;52.920;6.536;2023-04-09T03:28:31;47.08;;;32.72;;
61015;SDS011;46902;52.920;6.536;2023-04-09T03:30:57;45.72;;;32.13;;
61015;SDS011;46902;52.920;6.536;2023-04-09T03:33:22;45.65;;;32.70;;
61015;SDS011;46902;52.920;6.536;2023-04-09T03:35:49;43.40;;;30.63;;
61015;SDS011;46902;52.920;6.536;2023-04-09T03:38:15;43.88;;;31.08;;
61015;SDS011;46902;52.920;6.536;2023-04-09T03:40:41;46.45;;;31.98;;
61015;SDS011;46902;52.920;6.536;2023-04-09T03:43:07;40.70;;;30.52;;
61015;SDS011;46902;52.920;6.536;2023-04-09T03:45:32;46.08;;;32.05;;
61015;SDS011;46902;52.920;6.536;2023-04-09T03:47:58;45.17;;;31.05;;
61015;SDS011;46902;52.920;6.536;2023-04-09T03:50:23;44.60;;;30.67;;
61015;SDS011;46902;52.920;6.536;2023-04-09T03:52:49;41.55;;;30.30;;
61015;SDS011;46902;52.920;6.536;2023-04-09T03:55:15;42.40;;;30.00;;
61015;SDS011;46902;52.920;6.536;2023-04-09T03:57:40;43.40;;;29.27;;
61015;SDS011;46902;52.920;6.536;2023-04-09T04:00:06;42.75;;;30.70;;
61015;SDS011;46902;52.920;6.536;2023-04-09T04:02:32;45.95;;;31.52;;
61015;SDS011;46902;52.920;6.536;2023-04-09T04:05:00;43.10;;;31.13;;
61015;SDS011;46902;52.920;6.536;2023-04-09T04:07:26;42.03;;;30.67;;
61015;SDS011;46902;52.920;6.536;2023-04-09T04:09:51;42.75;;;29.63;;
61015;SDS011;46902;52.920;6.536;2023-04-09T04:12:17;43.05;;;29.92;;
61015;SDS011;46902;52.920;6.536;2023-04-09T04:14:43;45.58;;;31.90;;
61015;SDS011;46902;52.920;6.536;2023-04-09T04:17:09;45.25;;;29.92;;
61015;SDS011;46902;52.920;6.536;2023-04-09T04:19:35;44.05;;;30.45;;
61015;SDS011;46902;52.920;6.536;2023-04-09T04:22:01;38.10;;;28.20;;
61015;SDS011;46902;52.920;6.536;2023-04-09T04:24:27;38.83;;;29.13;;
61015;SDS011;46902;52.920;6.536;2023-04-09T04:26:52;41.08;;;29.50;;
61015;SDS011;46902;52.920;6.536;2023-04-09T04:29:18;38.67;;;28.52;;
61015;SDS011;46902;52.920;6.536;2023-04-09T04:31:43;43.25;;;29.60;;
61015;SDS011;46902;52.920;6.536;2023-04-09T04:34:09;38.75;;;28.42;;
61015;SDS011;46902;52.920;6.536;2023-04-09T04:36:35;34.55;;;27.20;;
61015;SDS011;46902;52.920;6.536;2023-04-09T04:39:01;39.75;;;28.50;;
61015;SDS011;46902;52.920;6.536;2023-04-09T04:41:26;36.17;;;27.40;;
61015;SDS011;46902;52.920;6.536;2023-04-09T04:43:53;38.33;;;28.13;;
61015;SDS011;46902;52.920;6.536;2023-04-09T04:46:19;38.65;;;26.63;;
61015;SDS011;46902;52.920;6.536;2023-04-09T04:48:45;40.28;;;28.00;;
61015;SDS011;46902;52.920;6.536;2023-04-09T04:51:10;42.05;;;27.42;;
61015;SDS011;46902;52.920;6.536;2023-04-09T04:53:36;37.00;;;27.15;;
61015;SDS011;46902;52.920;6.536;2023-04-09T04:56:01;39.42;;;27.83;;
61015;SDS011;46902;52.920;6.536;2023-04-09T04:58:27;37.90;;;28.50;;
61015;SDS011;46902;52.920;6.536;2023-04-09T05:00:54;40.38;;;28.50;;
61015;SDS011;46902;52.920;6.536;2023-04-09T05:03:20;37.15;;;26.77;;
61015;SDS011;46902;52.920;6.536;2023-04-09T05:05:45;35.47;;;26.48;;
61015;SDS011;46902;52.920;6.536;2023-04-09T05:08:11;38.58;;;27.42;;
61015;SDS011;46902;52.920;6.536;2023-04-09T05:10:39;39.53;;;27.80;;
61015;SDS011;46902;52.920;6.536;2023-04-09T05:13:06;40.85;;;26.95;;
61015;SDS011;46902;52.920;6.536;2023-04-09T05:15:31;38.63;;;28.73;;
61015;SDS011;46902;52.920;6.536;2023-04-09T05:17:57;35.42;;;25.65;;
61015;SDS011;46902;52.920;6.536;2023-04-09T05:20:23;35.85;;;25.33;;
61015;SDS011;46902;52.920;6.536;2023-04-09T05:22:51;34.22;;;25.80;;
61015;SDS011;46902;52.920;6.536;2023-04-09T05:25:16;34.67;;;24.95;;
61015;SDS011;46902;52.920;6.536;2023-04-09T05:27:42;34.78;;;25.95;;
61015;SDS011;46902;52.920;6.536;2023-04-09T05:30:08;31.17;;;25.02;;
61015;SDS011;46902;52.920;6.536;2023-04-09T05:32:33;34.55;;;24.85;;
61015;SDS011;46902;52.920;6.536;2023-04-09T05:34:59;35.60;;;27.00;;
61015;SDS011;46902;52.920;6.536;2023-04-09T05:37:25;32.45;;;25.58;;
61015;SDS011;46902;52.920;6.536;2023-04-09T05:39:50;35.50;;;26.73;;
61015;SDS011;46902;52.920;6.536;2023-04-09T05:42:16;37.88;;;27.85;;
61015;SDS011;46902;52.920;6.536;2023-04-09T05:44:41;35.47;;;27.33;;
61015;SDS011;46902;52.920;6.536;2023-04-09T05:47:07;37.95;;;27.83;;
61015;SDS011;46902;52.920;6.536;2023-04-09T05:49:32;34.35;;;26.02;;
61015;SDS011;46902;52.920;6.536;2023-04-09T05:51:58;35.33;;;26.73;;
61015;SDS011;46902;52.920;6.536;2023-04-09T05:54:24;39.40;;;28.67;;
61015;SDS011;46902;52.920;6.536;2023-04-09T05:56:50;35.67;;;26.52;;
61015;SDS011;46902;52.920;6.536;2023-04-09T05:59:16;37.33;;;26.70;;
61015;SDS011;46902;52.920;6.536;2023-04-09T06:01:42;34.67;;;25.92;;
61015;SDS011;46902;52.920;6.536;2023-04-09T06:04:08;33.70;;;25.77;;
61015;SDS011;46902;52.920;6.536;2023-04-09T06:06:33;33.53;;;25.65;;
61015;SDS011;46902;52.920;6.536;2023-04-09T06:09:01;33.90;;;26.38;;
61015;SDS011;46902;52.920;6.536;2023-04-09T06:11:27;36.90;;;26.83;;
61015;SDS011;46902;52.920;6.536;2023-04-09T06:13:53;33.55;;;25.75;;
61015;SDS011;46902;52.920;6.536;2023-04-09T06:16:18;35.35;;;26.52;;
61015;SDS011;46902;52.920;6.536;2023-04-09T06:18:44;36.70;;;27.42;;
61015;SDS011;46902;52.920;6.536;2023-04-09T06:21:10;32.20;;;25.10;;
61015;SDS011;46902;52.920;6.536;2023-04-09T06:23:37;35.25;;;26.55;;
61015;SDS011;46902;52.920;6.536;2023-04-09T06:26:04;35.70;;;26.90;;
61015;SDS011;46902;52.920;6.536;2023-04-09T06:28:29;34.28;;;25.88;;
61015;SDS011;46902;52.920;6.536;2023-04-09T06:30:56;35.00;;;26.13;;
61015;SDS011;46902;52.920;6.536;2023-04-09T06:33:22;35.33;;;26.55;;
61015;SDS011;46902;52.920;6.536;2023-04-09T06:35:48;34.75;;;25.45;;
61015;SDS011;46902;52.920;6.536;2023-04-09T06:38:14;37.08;;;26.23;;
61015;SDS011;46902;52.920;6.536;2023-04-09T06:40:40;35.88;;;26.27;;
61015;SDS011;46902;52.920;6.536;2023-04-09T06:43:06;32.72;;;25.50;;
61015;SDS011;46902;52.920;6.536;2023-04-09T06:45:32;35.90;;;26.20;;
61015;SDS011;46902;52.920;6.536;2023-04-09T06:47:58;35.20;;;26.30;;
61015;SDS011;46902;52.920;6.536;2023-04-09T06:50:24;35.67;;;26.55;;
61015;SDS011;46902;52.920;6.536;2023-04-09T06:52:50;35.22;;;25.98;;
61015;SDS011;46902;52.920;6.536;2023-04-09T06:55:16;33.50;;;25.15;;
61015;SDS011;46902;52.920;6.536;2023-04-09T06:57:42;36.35;;;26.70;;
61015;SDS011;46902;52.920;6.536;2023-04-09T07:00:07;36.90;;;28.27;;
61015;SDS011;46902;52.920;6.536;2023-04-09T07:02:34;35.05;;;26.50;;
61015;SDS011;46902;52.920;6.536;2023-04-09T07:05:00;38.78;;;27.60;;
61015;SDS011;46902;52.920;6.536;2023-04-09T07:07:27;38.40;;;26.92;;
61015;SDS011;46902;52.920;6.536;2023-04-09T07:09:52;36.40;;;26.08;;
61015;SDS011;46902;52.920;6.536;2023-04-09T07:12:28;41.60;;;27.50;;
61015;SDS011;46902;52.920;6.536;2023-04-09T07:14:58;39.10;;;27.27;;
61015;SDS011;46902;52.920;6.536;2023-04-09T07:17:29;39.78;;;27.77;;
61015;SDS011;46902;52.920;6.536;2023-04-09T07:19:55;39.83;;;27.50;;
61015;SDS011;46902;52.920;6.536;2023-04-09T07:22:21;44.30;;;28.85;;
61015;SDS011;46902;52.920;6.536;2023-04-09T07:24:47;44.13;;;28.67;;
61015;SDS011;46902;52.920;6.536;2023-04-09T07:27:21;42.38;;;29.65;;
61015;SDS011;46902;52.920;6.536;2023-04-09T07:29:47;41.15;;;28.13;;
61015;SDS011;46902;52.920;6.536;2023-04-09T07:32:13;40.83;;;28.67;;
61015;SDS011;46902;52.920;6.536;2023-04-09T07:34:39;39.10;;;28.08;;
61015;SDS011;46902;52.920;6.536;2023-04-09T07:37:05;40.60;;;27.75;;
61015;SDS011;46902;52.920;6.536;2023-04-09T07:39:31;41.17;;;29.70;;
61015;SDS011;46902;52.920;6.536;2023-04-09T07:41:56;41.45;;;29.05;;
61015;SDS011;46902;52.920;6.536;2023-04-09T07:44:23;41.78;;;28.25;;
61015;SDS011;46902;52.920;6.536;2023-04-09T07:46:49;39.08;;;28.67;;
61015;SDS011;46902;52.920;6.536;2023-04-09T07:49:15;41.10;;;29.05;;
61015;SDS011;46902;52.920;6.536;2023-04-09T07:51:41;37.80;;;28.02;;
61015;SDS011;46902;52.920;6.536;2023-04-09T07:54:07;40.95;;;29.23;;
61015;SDS011;46902;52.920;6.536;2023-04-09T07:56:32;41.85;;;28.23;;
61015;SDS011;46902;52.920;6.536;2023-04-09T07:58:58;40.47;;;29.55;;
61015;SDS011;46902;52.920;6.536;2023-04-09T08:01:24;40.42;;;29.88;;
61015;SDS011;46902;52.920;6.536;2023-04-09T08:03:50;41.83;;;29.55;;
61015;SDS011;46902;52.920;6.536;2023-04-09T08:06:16;42.60;;;30.52;;
61015;SDS011;46902;52.920;6.536;2023-04-09T08:08:41;43.08;;;31.27;;
61015;SDS011;46902;52.920;6.536;2023-04-09T08:11:07;42.03;;;29.80;;
61015;SDS011;46902;52.920;6.536;2023-04-09T08:13:33;42.88;;;30.73;;
61015;SDS011;46902;52.920;6.536;2023-04-09T08:16:01;41.22;;;29.70;;
61015;SDS011;46902;52.920;6.536;2023-04-09T08:18:27;41.58;;;30.20;;
61015;SDS011;46902;52.920;6.536;2023-04-09T08:20:54;42.83;;;30.58;;
61015;SDS011;46902;52.920;6.536;2023-04-09T08:23:20;40.55;;;29.45;;
61015;SDS011;46902;52.920;6.536;2023-04-09T08:25:46;38.60;;;28.77;;
61015;SDS011;46902;52.920;6.536;2023-04-09T08:28:11;42.17;;;29.83;;
61015;SDS011;46902;52.920;6.536;2023-04-09T08:30:37;39.90;;;29.45;;
61015;SDS011;46902;52.920;6.536;2023-04-09T08:33:03;40.75;;;29.73;;
61015;SDS011;46902;52.920;6.536;2023-04-09T08:35:29;38.10;;;28.48;;
61015;SDS011;46902;52.920;6.536;2023-04-09T08:37:55;39.08;;;28.60;;
61015;SDS011;46902;52.920;6.536;2023-04-09T08:40:21;37.15;;;28.42;;
61015;SDS011;46902;52.920;6.536;2023-04-09T08:42:48;38.58;;;28.95;;
61015;SDS011;46902;52.920;6.536;2023-04-09T08:45:21;36.95;;;27.52;;
61015;SDS011;46902;52.920;6.536;2023-04-09T08:47:48;36.80;;;27.70;;
61015;SDS011;46902;52.920;6.536;2023-04-09T08:50:15;34.28;;;26.30;;
61015;SDS011;46902;52.920;6.536;2023-04-09T08:52:40;36.70;;;25.63;;
61015;SDS011;46902;52.920;6.536;2023-04-09T08:55:07;31.27;;;25.10;;
61015;SDS011;46902;52.920;6.536;2023-04-09T08:57:36;36.25;;;27.13;;
61015;SDS011;46902;52.920;6.536;2023-04-09T09:00:02;36.83;;;27.60;;
61015;SDS011;46902;52.920;6.536;2023-04-09T09:02:28;34.03;;;26.77;;
61015;SDS011;46902;52.920;6.536;2023-04-09T09:04:55;32.78;;;24.98;;
61015;SDS011;46902;52.920;6.536;2023-04-09T09:07:24;35.42;;;26.73;;
61015;SDS011;46902;52.920;6.536;2023-04-09T09:09:56;36.58;;;27.13;;
61015;SDS011;46902;52.920;6.536;2023-04-09T09:12:36;34.25;;;26.45;;
61015;SDS011;46902;52.920;6.536;2023-04-09T09:15:04;36.00;;;27.17;;
61015;SDS011;46902;52.920;6.536;2023-04-09T09:17:55;33.97;;;26.50;;
61015;SDS011;46902;52.920;6.536;2023-04-09T09:20:22;35.72;;;26.08;;
61015;SDS011;46902;52.920;6.536;2023-04-09T09:22:49;32.80;;;25.17;;
61015;SDS011;46902;52.920;6.536;2023-04-09T09:25:16;35.30;;;26.45;;
61015;SDS011;46902;52.920;6.536;2023-04-09T09:27:42;34.95;;;26.10;;
61015;SDS011;46902;52.920;6.536;2023-04-09T09:30:08;38.05;;;27.70;;
61015;SDS011;46902;52.920;6.536;2023-04-09T09:32:44;36.10;;;25.90;;
61015;SDS011;46902;52.920;6.536;2023-04-09T09:35:10;29.25;;;23.88;;
61015;SDS011;46902;52.920;6.536;2023-04-09T09:37:35;31.35;;;24.42;;
61015;SDS011;46902;52.920;6.536;2023-04-09T09:40:01;35.33;;;25.23;;
61015;SDS011;46902;52.920;6.536;2023-04-09T09:42:26;32.22;;;24.33;;
61015;SDS011;46902;52.920;6.536;2023-04-09T09:44:53;33.35;;;24.80;;
61015;SDS011;46902;52.920;6.536;2023-04-09T09:47:19;32.40;;;25.02;;
61015;SDS011;46902;52.920;6.536;2023-04-09T09:49:49;32.58;;;24.38;;
61015;SDS011;46902;52.920;6.536;2023-04-09T09:52:17;32.13;;;25.25;;
61015;SDS011;46902;52.920;6.536;2023-04-09T09:54:50;32.67;;;24.75;;
61015;SDS011;46902;52.920;6.536;2023-04-09T09:57:17;32.08;;;24.98;;
61015;SDS011;46902;52.920;6.536;2023-04-09T09:59:54;30.08;;;24.30;;
61015;SDS011;46902;52.920;6.536;2023-04-09T10:02:30;32.03;;;24.20;;
61015;SDS011;46902;52.920;6.536;2023-04-09T10:05:17;33.95;;;25.65;;
61015;SDS011;46902;52.920;6.536;2023-04-09T10:07:44;30.50;;;23.92;;
61015;SDS011;46902;52.920;6.536;2023-04-09T10:10:11;28.70;;;23.63;;
61015;SDS011;46902;52.920;6.536;2023-04-09T10:12:37;29.60;;;24.45;;
61015;SDS011;46902;52.920;6.536;2023-04-09T10:15:05;29.85;;;23.88;;
61015;SDS011;46902;52.920;6.536;2023-04-09T10:17:33;28.02;;;22.85;;
61015;SDS011;46902;52.920;6.536;2023-04-09T10:22:50;27.85;;;22.65;;
61015;SDS011;46902;52.920;6.536;2023-04-09T10:25:17;30.13;;;23.70;;
61015;SDS011;46902;52.920;6.536;2023-04-09T10:27:43;28.50;;;23.05;;
61015;SDS011;46902;52.920;6.536;2023-04-09T10:30:29;26.33;;;22.00;;
61015;SDS011;46902;52.920;6.536;2023-04-09T10:33:08;30.40;;;23.75;;
61015;SDS011;46902;52.920;6.536;2023-04-09T10:35:38;29.52;;;22.90;;
61015;SDS011;46902;52.920;6.536;2023-04-09T10:38:07;30.95;;;24.52;;
61015;SDS011;46902;52.920;6.536;2023-04-09T10:40:38;30.42;;;23.95;;
61015;SDS011;46902;52.920;6.536;2023-04-09T10:43:16;32.60;;;24.13;;
61015;SDS011;46902;52.920;6.536;2023-04-09T10:45:44;26.35;;;22.35;;
61015;SDS011;46902;52.920;6.536;2023-04-09T10:48:12;30.52;;;23.45;;
61015;SDS011;46902;52.920;6.536;2023-04-09T10:50:38;28.20;;;22.95;;
61015;SDS011;46902;52.920;6.536;2023-04-09T10:53:06;27.73;;;22.02;;
61015;SDS011;46902;52.920;6.536;2023-04-09T10:55:47;29.90;;;23.77;;
61015;SDS011;46902;52.920;6.536;2023-04-09T10:58:14;28.20;;;22.60;;
61015;SDS011;46902;52.920;6.536;2023-04-09T11:00:40;28.48;;;23.58;;
61015;SDS011;46902;52.920;6.536;2023-04-09T11:05:33;28.48;;;22.58;;
61015;SDS011;46902;52.920;6.536;2023-04-09T11:08:10;27.73;;;21.45;;
61015;SDS011;46902;52.920;6.536;2023-04-09T11:10:37;28.10;;;21.77;;
61015;SDS011;46902;52.920;6.536;2023-04-09T11:13:05;26.30;;;21.10;;
61015;SDS011;46902;52.920;6.536;2023-04-09T11:15:32;29.55;;;22.25;;
61015;SDS011;46902;52.920;6.536;2023-04-09T11:17:59;25.20;;;20.20;;
61015;SDS011;46902;52.920;6.536;2023-04-09T11:20:26;25.08;;;20.10;;
61015;SDS011;46902;52.920;6.536;2023-04-09T11:22:52;25.45;;;20.50;;
61015;SDS011;46902;52.920;6.536;2023-04-09T11:25:29;25.67;;;20.83;;
61015;SDS011;46902;52.920;6.536;2023-04-09T11:27:56;25.02;;;21.15;;
61015;SDS011;46902;52.920;6.536;2023-04-09T11:30:22;26.90;;;21.20;;
61015;SDS011;46902;52.920;6.536;2023-04-09T11:32:49;22.83;;;20.02;;
61015;SDS011;46902;52.920;6.536;2023-04-09T11:35:15;23.65;;;19.63;;
61015;SDS011;46902;52.920;6.536;2023-04-09T11:37:45;24.58;;;20.63;;
61015;SDS011;46902;52.920;6.536;2023-04-09T11:40:18;26.65;;;20.13;;
61015;SDS011;46902;52.920;6.536;2023-04-09T11:42:47;22.20;;;19.05;;
61015;SDS011;46902;52.920;6.536;2023-04-09T11:45:14;22.38;;;19.50;;
61015;SDS011;46902;52.920;6.536;2023-04-09T11:47:41;23.08;;;18.52;;
61015;SDS011;46902;52.920;6.536;2023-04-09T11:50:08;22.70;;;18.05;;
61015;SDS011;46902;52.920;6.536;2023-04-09T11:52:36;21.60;;;18.67;;
61015;SDS011;46902;52.920;6.536;2023-04-09T11:55:02;22.23;;;18.63;;
61015;SDS011;46902;52.920;6.536;2023-04-09T11:57:38;21.02;;;18.40;;
61015;SDS011;46902;52.920;6.536;2023-04-09T12:00:09;22.02;;;18.35;;
61015;SDS011;46902;52.920;6.536;2023-04-09T12:02:41;22.48;;;18.85;;
61015;SDS011;46902;52.920;6.536;2023-04-09T12:05:12;23.15;;;18.25;;
61015;SDS011;46902;52.920;6.536;2023-04-09T12:07:48;21.70;;;17.98;;
61015;SDS011;46902;52.920;6.536;2023-04-09T12:10:15;21.13;;;17.27;;
61015;SDS011;46902;52.920;6.536;2023-04-09T12:12:44;22.00;;;18.20;;
61015;SDS011;46902;52.920;6.536;2023-04-09T12:15:16;20.48;;;17.05;;
61015;SDS011;46902;52.920;6.536;2023-04-09T12:17:49;18.20;;;15.82;;
61015;SDS011;46902;52.920;6.536;2023-04-09T12:20:27;20.83;;;16.58;;
61015;SDS011;46902;52.920;6.536;2023-04-09T12:22:58;21.02;;;17.40;;
61015;SDS011;46902;52.920;6.536;2023-04-09T12:25:25;20.10;;;17.30;;
61015;SDS011;46902;52.920;6.536;2023-04-09T12:27:51;20.38;;;16.88;;
61015;SDS011;46902;52.920;6.536;2023-04-09T12:30:18;19.98;;;17.00;;
61015;SDS011;46902;52.920;6.536;2023-04-09T12:32:44;18.33;;;16.17;;
61015;SDS011;46902;52.920;6.536;2023-04-09T12:35:10;18.33;;;15.63;;
61015;SDS011;46902;52.920;6.536;2023-04-09T12:37:36;19.55;;;16.50;;
61015;SDS011;46902;52.920;6.536;2023-04-09T12:40:01;18.80;;;15.85;;
61015;SDS011;46902;52.920;6.536;2023-04-09T12:42:27;18.35;;;16.05;;
61015;SDS011;46902;52.920;6.536;2023-04-09T12:44:53;21.63;;;17.20;;
61015;SDS011;46902;52.920;6.536;2023-04-09T12:47:18;20.83;;;17.38;;
61015;SDS011;46902;52.920;6.536;2023-04-09T12:49:44;22.63;;;16.67;;
61015;SDS011;46902;52.920;6.536;2023-04-09T12:52:11;20.05;;;16.70;;
61015;SDS011;46902;52.920;6.536;2023-04-09T12:54:36;21.00;;;16.45;;
61015;SDS011;46902;52.920;6.536;2023-04-09T12:57:04;19.75;;;16.70;;
61015;SDS011;46902;52.920;6.536;2023-04-09T12:59:30;20.52;;;17.60;;
61015;SDS011;46902;52.920;6.536;2023-04-09T13:01:55;22.17;;;18.63;;
61015;SDS011;46902;52.920;6.536;2023-04-09T13:04:21;21.80;;;18.70;;
61015;SDS011;46902;52.920;6.536;2023-04-09T13:06:47;20.95;;;17.40;;
61015;SDS011;46902;52.920;6.536;2023-04-09T13:09:12;21.15;;;17.40;;
61015;SDS011;46902;52.920;6.536;2023-04-09T13:11:38;22.70;;;18.08;;
61015;SDS011;46902;52.920;6.536;2023-04-09T13:14:04;22.73;;;17.92;;
61015;SDS011;46902;52.920;6.536;2023-04-09T13:16:30;20.00;;;17.27;;
61015;SDS011;46902;52.920;6.536;2023-04-09T13:18:56;23.45;;;18.30;;
61015;SDS011;46902;52.920;6.536;2023-04-09T13:21:22;21.95;;;17.40;;
61015;SDS011;46902;52.920;6.536;2023-04-09T13:23:48;18.67;;;16.67;;
61015;SDS011;46902;52.920;6.536;2023-04-09T13:26:14;19.52;;;16.75;;
61015;SDS011;46902;52.920;6.536;2023-04-09T13:28:40;22.95;;;17.85;;
61015;SDS011;46902;52.920;6.536;2023-04-09T13:31:05;22.45;;;19.20;;
61015;SDS011;46902;52.920;6.536;2023-04-09T13:33:31;25.92;;;18.90;;
61015;SDS011;46902;52.920;6.536;2023-04-09T13:35:57;20.00;;;17.83;;
61015;SDS011;46902;52.920;6.536;2023-04-09T13:38:23;20.95;;;17.50;;
61015;SDS011;46902;52.920;6.536;2023-04-09T13:40:48;20.77;;;17.05;;
61015;SDS011;46902;52.920;6.536;2023-04-09T13:43:14;20.95;;;18.38;;
61015;SDS011;46902;52.920;6.536;2023-04-09T13:45:40;20.48;;;17.30;;
61015;SDS011;46902;52.920;6.536;2023-04-09T13:48:05;20.42;;;16.85;;
61015;SDS011;46902;52.920;6.536;2023-04-09T13:50:31;19.60;;;17.25;;
61015;SDS011;46902;52.920;6.536;2023-04-09T13:52:57;19.40;;;17.00;;
61015;SDS011;46902;52.920;6.536;2023-04-09T13:55:23;19.88;;;17.50;;
61015;SDS011;46902;52.920;6.536;2023-04-09T13:57:48;19.80;;;16.50;;
61015;SDS011;46902;52.920;6.536;2023-04-09T14:00:14;16.92;;;15.13;;
61015;SDS011;46902;52.920;6.536;2023-04-09T14:02:40;18.98;;;16.45;;
61015;SDS011;46902;52.920;6.536;2023-04-09T14:05:05;18.10;;;15.50;;
61015;SDS011;46902;52.920;6.536;2023-04-09T14:07:31;17.38;;;15.30;;
61015;SDS011;46902;52.920;6.536;2023-04-09T14:09:57;17.25;;;14.65;;
61015;SDS011;46902;52.920;6.536;2023-04-09T14:12:22;18.88;;;16.45;;
61015;SDS011;46902;52.920;6.536;2023-04-09T14:14:48;17.67;;;15.48;;
61015;SDS011;46902;52.920;6.536;2023-04-09T14:17:14;19.23;;;15.15;;
61015;SDS011;46902;52.920;6.536;2023-04-09T14:19:40;18.30;;;14.60;;
61015;SDS011;46902;52.920;6.536;2023-04-09T14:22:05;16.08;;;14.38;;
61015;SDS011;46902;52.920;6.536;2023-04-09T14:24:33;16.80;;;14.98;;
61015;SDS011;46902;52.920;6.536;2023-04-09T14:27:04;18.17;;;15.73;;
61015;SDS011;46902;52.920;6.536;2023-04-09T14:29:30;18.30;;;16.02;;
61015;SDS011;46902;52.920;6.536;2023-04-09T14:31:56;17.83;;;15.45;;
61015;SDS011;46902;52.920;6.536;2023-04-09T14:34:21;18.70;;;15.25;;
61015;SDS011;46902;52.920;6.536;2023-04-09T14:36:47;18.92;;;15.60;;
61015;SDS011;46902;52.920;6.536;2023-04-09T14:39:12;16.92;;;14.65;;